sensor_id;sensor_type;location;lat;lon;timestamp;P1;durP1;ratioP1;P2;durP2;ratioP2
34019;SDS011;20895;51.034;3.742;2023-01-24T00:00:39;29.02;;;23.27;;
34019;SDS011;20895;51.034;3.742;2023-01-24T00:03:05;30.85;;;24.00;;
34019;SDS011;20895;51.034;3.742;2023-01-24T00:05:33;33.00;;;24.88;;
34019;SDS011;20895;51.034;3.742;2023-01-24T00:07:59;31.67;;;24.50;;
34019;SDS011;20895;51.034;3.742;2023-01-24T00:10:24;29.40;;;22.92;;
34019;SDS011;20895;51.034;3.742;2023-01-24T00:12:50;32.10;;;24.77;;
34019;SDS011;20895;51.034;3.742;2023-01-24T00:15:15;31.45;;;24.95;;
34019;SDS011;20895;51.034;3.742;2023-01-24T00:17:41;31.90;;;24.27;;
34019;SDS011;20895;51.034;3.742;2023-01-24T00:20:06;32.88;;;25.90;;
34019;SDS011;20895;51.034;3.742;2023-01-24T00:22:31;30.95;;;23.30;;
34019;SDS011;20895;51.034;3.742;2023-01-24T00:24:57;31.42;;;24.55;;
34019;SDS011;20895;51.034;3.742;2023-01-24T00:27:22;33.15;;;24.58;;
34019;SDS011;20895;51.034;3.742;2023-01-24T00:29:47;28.58;;;23.38;;
34019;SDS011;20895;51.034;3.742;2023-01-24T00:32:12;30.25;;;23.75;;
34019;SDS011;20895;51.034;3.742;2023-01-24T00:34:38;29.08;;;23.90;;
34019;SDS011;20895;51.034;3.742;2023-01-24T00:37:03;30.98;;;24.27;;
34019;SDS011;20895;51.034;3.742;2023-01-24T00:39:28;34.92;;;25.13;;
34019;SDS011;20895;51.034;3.742;2023-01-24T00:41:53;31.27;;;24.23;;
34019;SDS011;20895;51.034;3.742;2023-01-24T00:44:19;32.72;;;23.08;;
34019;SDS011;20895;51.034;3.742;2023-01-24T00:46:44;30.30;;;24.05;;
34019;SDS011;20895;51.034;3.742;2023-01-24T00:49:09;30.75;;;23.30;;
34019;SDS011;20895;51.034;3.742;2023-01-24T00:51:35;29.58;;;23.52;;
34019;SDS011;20895;51.034;3.742;2023-01-24T00:54:00;31.88;;;24.65;;
34019;SDS011;20895;51.034;3.742;2023-01-24T00:56:25;35.78;;;26.20;;
34019;SDS011;20895;51.034;3.742;2023-01-24T00:58:51;30.95;;;24.33;;
34019;SDS011;20895;51.034;3.742;2023-01-24T01:01:16;33.58;;;24.13;;
34019;SDS011;20895;51.034;3.742;2023-01-24T01:03:41;31.88;;;24.90;;
34019;SDS011;20895;51.034;3.742;2023-01-24T01:06:08;30.20;;;24.23;;
34019;SDS011;20895;51.034;3.742;2023-01-24T01:08:34;31.58;;;24.42;;
34019;SDS011;20895;51.034;3.742;2023-01-24T01:10:59;29.85;;;23.33;;
34019;SDS011;20895;51.034;3.742;2023-01-24T01:13:25;29.67;;;22.80;;
34019;SDS011;20895;51.034;3.742;2023-01-24T01:15:50;31.23;;;23.42;;
34019;SDS011;20895;51.034;3.742;2023-01-24T01:18:15;34.20;;;25.63;;
34019;SDS011;20895;51.034;3.742;2023-01-24T01:20:41;31.40;;;24.90;;
34019;SDS011;20895;51.034;3.742;2023-01-24T01:23:06;33.75;;;24.42;;
34019;SDS011;20895;51.034;3.742;2023-01-24T01:25:31;32.50;;;25.98;;
34019;SDS011;20895;51.034;3.742;2023-01-24T01:27:56;33.67;;;26.10;;
34019;SDS011;20895;51.034;3.742;2023-01-24T01:30:21;54.55;;;28.30;;
34019;SDS011;20895;51.034;3.742;2023-01-24T01:32:47;32.33;;;23.98;;
34019;SDS011;20895;51.034;3.742;2023-01-24T01:35:12;30.83;;;24.42;;
34019;SDS011;20895;51.034;3.742;2023-01-24T01:37:38;32.17;;;24.23;;
34019;SDS011;20895;51.034;3.742;2023-01-24T01:40:03;33.47;;;24.95;;
34019;SDS011;20895;51.034;3.742;2023-01-24T01:47:52;31.67;;;25.00;;
34019;SDS011;20895;51.034;3.742;2023-01-24T01:50:25;30.27;;;24.75;;
34019;SDS011;20895;51.034;3.742;2023-01-24T01:52:52;31.45;;;25.17;;
34019;SDS011;20895;51.034;3.742;2023-01-24T01:55:18;32.45;;;25.98;;
34019;SDS011;20895;51.034;3.742;2023-01-24T01:57:44;31.30;;;23.67;;
34019;SDS011;20895;51.034;3.742;2023-01-24T02:02:36;29.65;;;23.95;;
34019;SDS011;20895;51.034;3.742;2023-01-24T02:05:03;34.03;;;25.35;;
34019;SDS011;20895;51.034;3.742;2023-01-24T02:07:44;31.25;;;25.00;;
34019;SDS011;20895;51.034;3.742;2023-01-24T02:10:10;32.90;;;25.10;;
34019;SDS011;20895;51.034;3.742;2023-01-24T02:12:37;32.17;;;25.38;;
34019;SDS011;20895;51.034;3.742;2023-01-24T02:15:21;33.70;;;26.45;;
34019;SDS011;20895;51.034;3.742;2023-01-24T02:18:06;31.63;;;25.65;;
34019;SDS011;20895;51.034;3.742;2023-01-24T02:20:41;33.50;;;26.40;;
34019;SDS011;20895;51.034;3.742;2023-01-24T02:25:37;31.85;;;25.05;;
34019;SDS011;20895;51.034;3.742;2023-01-24T02:28:04;30.42;;;24.98;;
34019;SDS011;20895;51.034;3.742;2023-01-24T02:30:30;31.08;;;24.92;;
34019;SDS011;20895;51.034;3.742;2023-01-24T02:32:56;32.97;;;25.33;;
34019;SDS011;20895;51.034;3.742;2023-01-24T02:35:25;32.35;;;25.60;;
34019;SDS011;20895;51.034;3.742;2023-01-24T02:37:51;30.83;;;24.92;;
34019;SDS011;20895;51.034;3.742;2023-01-24T02:40:16;30.63;;;23.73;;
34019;SDS011;20895;51.034;3.742;2023-01-24T02:42:42;30.77;;;23.63;;
34019;SDS011;20895;51.034;3.742;2023-01-24T02:45:21;35.50;;;23.58;;
34019;SDS011;20895;51.034;3.742;2023-01-24T02:47:48;30.58;;;24.52;;
34019;SDS011;20895;51.034;3.742;2023-01-24T02:50:15;31.13;;;23.20;;
34019;SDS011;20895;51.034;3.742;2023-01-24T02:52:40;31.45;;;24.80;;
34019;SDS011;20895;51.034;3.742;2023-01-24T02:55:24;29.60;;;23.77;;
34019;SDS011;20895;51.034;3.742;2023-01-24T02:57:50;30.88;;;23.40;;
34019;SDS011;20895;51.034;3.742;2023-01-24T03:00:30;31.40;;;23.20;;
34019;SDS011;20895;51.034;3.742;2023-01-24T03:02:55;30.60;;;23.83;;
34019;SDS011;20895;51.034;3.742;2023-01-24T03:05:21;28.45;;;22.80;;
34019;SDS011;20895;51.034;3.742;2023-01-24T03:07:46;30.65;;;23.30;;
34019;SDS011;20895;51.034;3.742;2023-01-24T03:10:12;31.20;;;24.10;;
34019;SDS011;20895;51.034;3.742;2023-01-24T03:12:39;27.67;;;21.10;;
34019;SDS011;20895;51.034;3.742;2023-01-24T03:15:23;27.65;;;21.77;;
34019;SDS011;20895;51.034;3.742;2023-01-24T03:18:07;32.50;;;22.25;;
34019;SDS011;20895;51.034;3.742;2023-01-24T03:20:51;29.08;;;22.50;;
34019;SDS011;20895;51.034;3.742;2023-01-24T03:23:35;28.25;;;22.55;;
34019;SDS011;20895;51.034;3.742;2023-01-24T03:26:19;34.35;;;26.00;;
34019;SDS011;20895;51.034;3.742;2023-01-24T03:29:03;32.67;;;25.73;;
34019;SDS011;20895;51.034;3.742;2023-01-24T03:31:47;31.08;;;24.13;;
34019;SDS011;20895;51.034;3.742;2023-01-24T03:34:31;36.38;;;26.60;;
34019;SDS011;20895;51.034;3.742;2023-01-24T03:37:10;38.22;;;28.73;;
34019;SDS011;20895;51.034;3.742;2023-01-24T03:39:35;38.47;;;28.50;;
34019;SDS011;20895;51.034;3.742;2023-01-24T03:42:23;35.97;;;26.92;;
34019;SDS011;20895;51.034;3.742;2023-01-24T03:44:49;35.85;;;27.30;;
34019;SDS011;20895;51.034;3.742;2023-01-24T03:47:14;38.03;;;28.27;;
34019;SDS011;20895;51.034;3.742;2023-01-24T03:49:39;35.47;;;27.17;;
34019;SDS011;20895;51.034;3.742;2023-01-24T03:54:55;38.17;;;28.35;;
34019;SDS011;20895;51.034;3.742;2023-01-24T03:57:21;38.25;;;29.25;;
34019;SDS011;20895;51.034;3.742;2023-01-24T03:59:46;37.10;;;29.23;;
34019;SDS011;20895;51.034;3.742;2023-01-24T04:02:11;38.53;;;29.88;;
34019;SDS011;20895;51.034;3.742;2023-01-24T04:04:37;39.58;;;30.02;;
34019;SDS011;20895;51.034;3.742;2023-01-24T04:07:20;36.40;;;28.83;;
34019;SDS011;20895;51.034;3.742;2023-01-24T04:09:45;40.15;;;30.08;;
34019;SDS011;20895;51.034;3.742;2023-01-24T04:12:11;41.45;;;31.35;;
34019;SDS011;20895;51.034;3.742;2023-01-24T04:14:36;41.80;;;28.75;;
34019;SDS011;20895;51.034;3.742;2023-01-24T04:17:01;40.47;;;29.88;;
34019;SDS011;20895;51.034;3.742;2023-01-24T04:19:26;40.92;;;30.90;;
34019;SDS011;20895;51.034;3.742;2023-01-24T04:21:52;40.35;;;28.90;;
34019;SDS011;20895;51.034;3.742;2023-01-24T04:24:17;37.08;;;27.42;;
34019;SDS011;20895;51.034;3.742;2023-01-24T04:26:42;40.10;;;29.60;;
34019;SDS011;20895;51.034;3.742;2023-01-24T04:29:08;46.33;;;31.08;;
34019;SDS011;20895;51.034;3.742;2023-01-24T04:31:33;41.53;;;30.00;;
34019;SDS011;20895;51.034;3.742;2023-01-24T04:33:58;41.67;;;28.58;;
34019;SDS011;20895;51.034;3.742;2023-01-24T04:36:23;40.17;;;30.77;;
34019;SDS011;20895;51.034;3.742;2023-01-24T04:38:48;40.65;;;29.95;;
34019;SDS011;20895;51.034;3.742;2023-01-24T04:41:14;37.92;;;27.95;;
34019;SDS011;20895;51.034;3.742;2023-01-24T04:43:42;40.53;;;30.08;;
34019;SDS011;20895;51.034;3.742;2023-01-24T04:46:07;41.85;;;31.20;;
34019;SDS011;20895;51.034;3.742;2023-01-24T04:48:32;40.08;;;30.67;;
34019;SDS011;20895;51.034;3.742;2023-01-24T04:50:58;38.60;;;27.85;;
34019;SDS011;20895;51.034;3.742;2023-01-24T04:53:24;35.22;;;25.98;;
34019;SDS011;20895;51.034;3.742;2023-01-24T04:55:49;38.90;;;27.83;;
34019;SDS011;20895;51.034;3.742;2023-01-24T04:58:14;39.35;;;28.40;;
34019;SDS011;20895;51.034;3.742;2023-01-24T05:00:40;38.72;;;27.90;;
34019;SDS011;20895;51.034;3.742;2023-01-24T05:03:05;36.35;;;28.05;;
34019;SDS011;20895;51.034;3.742;2023-01-24T05:05:30;28.52;;;22.73;;
34019;SDS011;20895;51.034;3.742;2023-01-24T05:07:55;31.73;;;24.27;;
34019;SDS011;20895;51.034;3.742;2023-01-24T05:10:21;32.35;;;24.90;;
34019;SDS011;20895;51.034;3.742;2023-01-24T05:12:48;29.40;;;23.75;;
34019;SDS011;20895;51.034;3.742;2023-01-24T05:15:13;32.55;;;24.15;;
34019;SDS011;20895;51.034;3.742;2023-01-24T05:17:38;30.40;;;22.85;;
34019;SDS011;20895;51.034;3.742;2023-01-24T05:20:04;27.05;;;21.88;;
34019;SDS011;20895;51.034;3.742;2023-01-24T05:22:29;31.55;;;21.77;;
34019;SDS011;20895;51.034;3.742;2023-01-24T05:24:54;25.58;;;20.13;;
34019;SDS011;20895;51.034;3.742;2023-01-24T05:27:20;33.80;;;24.85;;
34019;SDS011;20895;51.034;3.742;2023-01-24T05:29:45;33.20;;;24.25;;
34019;SDS011;20895;51.034;3.742;2023-01-24T05:32:10;27.17;;;20.90;;
34019;SDS011;20895;51.034;3.742;2023-01-24T05:34:35;32.28;;;24.13;;
34019;SDS011;20895;51.034;3.742;2023-01-24T05:37:01;30.83;;;23.52;;
34019;SDS011;20895;51.034;3.742;2023-01-24T05:39:26;31.30;;;23.92;;
34019;SDS011;20895;51.034;3.742;2023-01-24T05:41:51;34.38;;;24.65;;
34019;SDS011;20895;51.034;3.742;2023-01-24T05:44:16;30.30;;;21.88;;
34019;SDS011;20895;51.034;3.742;2023-01-24T05:46:42;26.88;;;20.75;;
34019;SDS011;20895;51.034;3.742;2023-01-24T05:49:08;31.00;;;22.65;;
34019;SDS011;20895;51.034;3.742;2023-01-24T05:51:34;28.25;;;21.35;;
34019;SDS011;20895;51.034;3.742;2023-01-24T05:53:59;30.67;;;23.33;;
34019;SDS011;20895;51.034;3.742;2023-01-24T05:56:24;31.77;;;24.33;;
34019;SDS011;20895;51.034;3.742;2023-01-24T05:58:49;32.30;;;23.92;;
34019;SDS011;20895;51.034;3.742;2023-01-24T06:01:16;33.58;;;23.83;;
34019;SDS011;20895;51.034;3.742;2023-01-24T06:03:42;30.98;;;23.27;;
34019;SDS011;20895;51.034;3.742;2023-01-24T06:06:08;29.00;;;21.92;;
34019;SDS011;20895;51.034;3.742;2023-01-24T06:08:34;26.75;;;21.10;;
34019;SDS011;20895;51.034;3.742;2023-01-24T06:11:06;30.65;;;23.20;;
34019;SDS011;20895;51.034;3.742;2023-01-24T06:13:32;29.35;;;22.67;;
34019;SDS011;20895;51.034;3.742;2023-01-24T06:16:01;31.67;;;23.85;;
34019;SDS011;20895;51.034;3.742;2023-01-24T06:18:26;30.92;;;24.90;;
34019;SDS011;20895;51.034;3.742;2023-01-24T06:20:52;32.15;;;24.08;;
34019;SDS011;20895;51.034;3.742;2023-01-24T06:23:21;29.20;;;22.65;;
34019;SDS011;20895;51.034;3.742;2023-01-24T06:25:47;33.03;;;24.35;;
34019;SDS011;20895;51.034;3.742;2023-01-24T06:28:13;34.13;;;24.27;;
34019;SDS011;20895;51.034;3.742;2023-01-24T06:30:38;33.08;;;22.20;;
34019;SDS011;20895;51.034;3.742;2023-01-24T06:35:38;29.15;;;23.13;;
34019;SDS011;20895;51.034;3.742;2023-01-24T06:38:06;35.17;;;24.23;;
34019;SDS011;20895;51.034;3.742;2023-01-24T06:40:38;31.55;;;25.13;;
34019;SDS011;20895;51.034;3.742;2023-01-24T06:43:04;33.75;;;24.75;;
34019;SDS011;20895;51.034;3.742;2023-01-24T06:45:29;38.40;;;27.77;;
34019;SDS011;20895;51.034;3.742;2023-01-24T06:47:54;37.80;;;26.63;;
34019;SDS011;20895;51.034;3.742;2023-01-24T06:50:22;33.20;;;25.23;;
34019;SDS011;20895;51.034;3.742;2023-01-24T06:52:47;34.83;;;25.90;;
34019;SDS011;20895;51.034;3.742;2023-01-24T06:55:13;35.58;;;26.23;;
34019;SDS011;20895;51.034;3.742;2023-01-24T06:57:39;34.58;;;26.25;;
34019;SDS011;20895;51.034;3.742;2023-01-24T07:00:04;37.10;;;28.08;;
34019;SDS011;20895;51.034;3.742;2023-01-24T07:02:30;36.08;;;27.42;;
34019;SDS011;20895;51.034;3.742;2023-01-24T07:04:55;37.05;;;28.40;;
34019;SDS011;20895;51.034;3.742;2023-01-24T07:07:21;36.83;;;27.88;;
34019;SDS011;20895;51.034;3.742;2023-01-24T07:09:46;37.70;;;27.67;;
34019;SDS011;20895;51.034;3.742;2023-01-24T07:12:11;40.17;;;27.38;;
34019;SDS011;20895;51.034;3.742;2023-01-24T07:14:36;38.47;;;27.98;;
34019;SDS011;20895;51.034;3.742;2023-01-24T07:17:02;42.88;;;28.67;;
34019;SDS011;20895;51.034;3.742;2023-01-24T07:19:27;35.53;;;27.85;;
34019;SDS011;20895;51.034;3.742;2023-01-24T07:21:53;39.90;;;29.27;;
34019;SDS011;20895;51.034;3.742;2023-01-24T07:24:26;39.38;;;28.75;;
34019;SDS011;20895;51.034;3.742;2023-01-24T07:26:52;44.00;;;30.60;;
34019;SDS011;20895;51.034;3.742;2023-01-24T07:29:18;44.35;;;29.55;;
34019;SDS011;20895;51.034;3.742;2023-01-24T07:31:44;48.63;;;33.67;;
34019;SDS011;20895;51.034;3.742;2023-01-24T07:34:09;44.17;;;30.17;;
34019;SDS011;20895;51.034;3.742;2023-01-24T07:36:34;51.30;;;31.40;;
34019;SDS011;20895;51.034;3.742;2023-01-24T07:38:59;43.28;;;31.20;;
34019;SDS011;20895;51.034;3.742;2023-01-24T07:41:25;41.85;;;30.88;;
34019;SDS011;20895;51.034;3.742;2023-01-24T07:43:50;43.08;;;30.35;;
34019;SDS011;20895;51.034;3.742;2023-01-24T07:46:15;44.78;;;31.38;;
34019;SDS011;20895;51.034;3.742;2023-01-24T07:48:40;44.35;;;31.77;;
34019;SDS011;20895;51.034;3.742;2023-01-24T07:51:06;43.50;;;32.42;;
34019;SDS011;20895;51.034;3.742;2023-01-24T07:53:31;43.78;;;32.65;;
34019;SDS011;20895;51.034;3.742;2023-01-24T07:56:00;43.65;;;29.27;;
34019;SDS011;20895;51.034;3.742;2023-01-24T07:58:25;42.63;;;32.60;;
34019;SDS011;20895;51.034;3.742;2023-01-24T08:00:50;46.40;;;33.13;;
34019;SDS011;20895;51.034;3.742;2023-01-24T08:03:16;44.78;;;34.53;;
34019;SDS011;20895;51.034;3.742;2023-01-24T08:05:41;43.72;;;32.17;;
34019;SDS011;20895;51.034;3.742;2023-01-24T08:08:06;42.22;;;31.52;;
34019;SDS011;20895;51.034;3.742;2023-01-24T08:10:31;44.47;;;30.73;;
34019;SDS011;20895;51.034;3.742;2023-01-24T08:12:56;41.95;;;29.42;;
34019;SDS011;20895;51.034;3.742;2023-01-24T08:15:22;38.90;;;29.60;;
34019;SDS011;20895;51.034;3.742;2023-01-24T08:17:47;46.25;;;31.42;;
34019;SDS011;20895;51.034;3.742;2023-01-24T08:20:13;48.40;;;32.45;;
34019;SDS011;20895;51.034;3.742;2023-01-24T08:22:39;42.08;;;31.42;;
34019;SDS011;20895;51.034;3.742;2023-01-24T08:25:05;45.30;;;32.88;;
34019;SDS011;20895;51.034;3.742;2023-01-24T08:27:30;48.00;;;35.45;;
34019;SDS011;20895;51.034;3.742;2023-01-24T08:29:55;42.58;;;32.75;;
34019;SDS011;20895;51.034;3.742;2023-01-24T08:32:20;57.40;;;36.53;;
34019;SDS011;20895;51.034;3.742;2023-01-24T08:34:46;45.80;;;32.53;;
34019;SDS011;20895;51.034;3.742;2023-01-24T08:37:11;45.63;;;33.03;;
34019;SDS011;20895;51.034;3.742;2023-01-24T08:39:36;43.97;;;32.42;;
34019;SDS011;20895;51.034;3.742;2023-01-24T08:42:01;43.85;;;31.40;;
34019;SDS011;20895;51.034;3.742;2023-01-24T08:44:27;38.20;;;28.58;;
34019;SDS011;20895;51.034;3.742;2023-01-24T08:46:52;37.67;;;28.83;;
34019;SDS011;20895;51.034;3.742;2023-01-24T08:49:17;37.33;;;28.48;;
34019;SDS011;20895;51.034;3.742;2023-01-24T08:51:42;33.53;;;26.70;;
34019;SDS011;20895;51.034;3.742;2023-01-24T08:54:08;33.55;;;25.02;;
34019;SDS011;20895;51.034;3.742;2023-01-24T08:56:33;38.72;;;24.20;;
34019;SDS011;20895;51.034;3.742;2023-01-24T08:58:59;33.53;;;25.40;;
34019;SDS011;20895;51.034;3.742;2023-01-24T09:01:24;38.67;;;28.08;;
34019;SDS011;20895;51.034;3.742;2023-01-24T09:03:51;33.08;;;25.05;;
34019;SDS011;20895;51.034;3.742;2023-01-24T09:06:19;33.90;;;26.40;;
34019;SDS011;20895;51.034;3.742;2023-01-24T09:08:44;34.05;;;25.92;;
34019;SDS011;20895;51.034;3.742;2023-01-24T09:11:10;33.90;;;27.00;;
34019;SDS011;20895;51.034;3.742;2023-01-24T09:13:35;39.85;;;26.50;;
34019;SDS011;20895;51.034;3.742;2023-01-24T09:16:00;35.70;;;25.95;;
34019;SDS011;20895;51.034;3.742;2023-01-24T09:18:25;32.60;;;22.30;;
34019;SDS011;20895;51.034;3.742;2023-01-24T09:20:51;39.55;;;24.75;;
34019;SDS011;20895;51.034;3.742;2023-01-24T09:23:16;27.45;;;22.15;;
34019;SDS011;20895;51.034;3.742;2023-01-24T09:25:48;30.17;;;22.88;;
34019;SDS011;20895;51.034;3.742;2023-01-24T09:28:13;32.55;;;23.30;;
34019;SDS011;20895;51.034;3.742;2023-01-24T09:30:38;30.67;;;23.17;;
34019;SDS011;20895;51.034;3.742;2023-01-24T09:33:04;30.27;;;22.65;;
34019;SDS011;20895;51.034;3.742;2023-01-24T09:35:29;31.85;;;23.10;;
34019;SDS011;20895;51.034;3.742;2023-01-24T09:37:54;34.85;;;23.60;;
34019;SDS011;20895;51.034;3.742;2023-01-24T09:40:21;33.45;;;26.05;;
34019;SDS011;20895;51.034;3.742;2023-01-24T09:45:36;36.65;;;26.10;;
34019;SDS011;20895;51.034;3.742;2023-01-24T09:48:05;37.25;;;27.15;;
34019;SDS011;20895;51.034;3.742;2023-01-24T09:53:19;38.47;;;29.38;;
34019;SDS011;20895;51.034;3.742;2023-01-24T09:55:46;36.10;;;26.05;;
34019;SDS011;20895;51.034;3.742;2023-01-24T09:58:22;32.45;;;24.42;;
34019;SDS011;20895;51.034;3.742;2023-01-24T10:00:51;34.72;;;25.73;;
34019;SDS011;20895;51.034;3.742;2023-01-24T10:03:18;37.58;;;24.65;;
34019;SDS011;20895;51.034;3.742;2023-01-24T10:05:46;31.55;;;23.10;;
34019;SDS011;20895;51.034;3.742;2023-01-24T10:08:33;33.75;;;27.30;;
34019;SDS011;20895;51.034;3.742;2023-01-24T10:21:45;34.13;;;25.17;;
34019;SDS011;20895;51.034;3.742;2023-01-24T10:24:14;36.33;;;26.50;;
34019;SDS011;20895;51.034;3.742;2023-01-24T10:26:41;36.65;;;28.70;;
34019;SDS011;20895;51.034;3.742;2023-01-24T10:29:27;42.10;;;29.48;;
34019;SDS011;20895;51.034;3.742;2023-01-24T10:32:16;41.58;;;31.30;;
34019;SDS011;20895;51.034;3.742;2023-01-24T10:34:49;37.58;;;28.20;;
34019;SDS011;20895;51.034;3.742;2023-01-24T10:37:25;44.15;;;28.55;;
34019;SDS011;20895;51.034;3.742;2023-01-24T10:39:52;36.83;;;26.25;;
34019;SDS011;20895;51.034;3.742;2023-01-24T10:42:22;40.15;;;26.90;;
34019;SDS011;20895;51.034;3.742;2023-01-24T10:44:47;32.72;;;25.65;;
34019;SDS011;20895;51.034;3.742;2023-01-24T10:49:45;32.40;;;25.80;;
34019;SDS011;20895;51.034;3.742;2023-01-24T10:52:16;36.22;;;27.30;;
34019;SDS011;20895;51.034;3.742;2023-01-24T10:57:19;39.28;;;28.83;;
34019;SDS011;20895;51.034;3.742;2023-01-24T10:59:48;38.83;;;28.70;;
34019;SDS011;20895;51.034;3.742;2023-01-24T11:02:21;45.00;;;30.33;;
34019;SDS011;20895;51.034;3.742;2023-01-24T11:04:47;33.15;;;23.38;;
34019;SDS011;20895;51.034;3.742;2023-01-24T11:07:35;35.25;;;26.42;;
34019;SDS011;20895;51.034;3.742;2023-01-24T11:12:46;39.85;;;28.15;;
34019;SDS011;20895;51.034;3.742;2023-01-24T11:15:14;35.90;;;26.23;;
34019;SDS011;20895;51.034;3.742;2023-01-24T11:17:41;37.17;;;26.25;;
34019;SDS011;20895;51.034;3.742;2023-01-24T11:22:50;31.15;;;25.42;;
34019;SDS011;20895;51.034;3.742;2023-01-24T11:25:16;39.72;;;24.35;;
34019;SDS011;20895;51.034;3.742;2023-01-24T11:27:45;28.48;;;21.75;;
34019;SDS011;20895;51.034;3.742;2023-01-24T11:30:15;31.05;;;21.65;;
34019;SDS011;20895;51.034;3.742;2023-01-24T11:32:58;35.55;;;26.75;;
34019;SDS011;20895;51.034;3.742;2023-01-24T11:35:28;34.83;;;26.40;;
34019;SDS011;20895;51.034;3.742;2023-01-24T11:48:21;42.03;;;29.73;;
34019;SDS011;20895;51.034;3.742;2023-01-24T11:55:56;48.17;;;31.83;;
34019;SDS011;20895;51.034;3.742;2023-01-24T12:06:13;41.53;;;29.60;;
34019;SDS011;20895;51.034;3.742;2023-01-24T12:08:45;38.92;;;29.20;;
34019;SDS011;20895;51.034;3.742;2023-01-24T12:11:28;39.13;;;29.10;;
34019;SDS011;20895;51.034;3.742;2023-01-24T12:19:14;37.05;;;27.60;;
34019;SDS011;20895;51.034;3.742;2023-01-24T12:21:47;35.50;;;28.85;;
34019;SDS011;20895;51.034;3.742;2023-01-24T12:24:21;33.00;;;26.23;;
34019;SDS011;20895;51.034;3.742;2023-01-24T12:26:52;35.55;;;26.75;;
34019;SDS011;20895;51.034;3.742;2023-01-24T12:29:22;33.42;;;26.25;;
34019;SDS011;20895;51.034;3.742;2023-01-24T12:31:57;34.75;;;26.00;;
34019;SDS011;20895;51.034;3.742;2023-01-24T12:37:02;37.95;;;27.33;;
34019;SDS011;20895;51.034;3.742;2023-01-24T12:39:30;37.55;;;28.30;;
34019;SDS011;20895;51.034;3.742;2023-01-24T12:42:18;38.47;;;28.80;;
34019;SDS011;20895;51.034;3.742;2023-01-24T12:44:58;43.72;;;29.23;;
34019;SDS011;20895;51.034;3.742;2023-01-24T12:47:28;37.58;;;27.95;;
34019;SDS011;20895;51.034;3.742;2023-01-24T12:55:11;35.80;;;26.20;;
34019;SDS011;20895;51.034;3.742;2023-01-24T12:57:43;35.95;;;26.85;;
34019;SDS011;20895;51.034;3.742;2023-01-24T13:00:16;46.15;;;27.67;;
34019;SDS011;20895;51.034;3.742;2023-01-24T13:10:42;32.83;;;25.63;;
34019;SDS011;20895;51.034;3.742;2023-01-24T13:13:21;34.00;;;25.48;;
34019;SDS011;20895;51.034;3.742;2023-01-24T13:21:10;33.90;;;25.73;;
34019;SDS011;20895;51.034;3.742;2023-01-24T13:26:42;26.60;;;21.45;;
34019;SDS011;20895;51.034;3.742;2023-01-24T13:36:49;50.58;;;26.95;;
34019;SDS011;20895;51.034;3.742;2023-01-24T13:39:34;31.63;;;24.73;;
34019;SDS011;20895;51.034;3.742;2023-01-24T13:42:19;33.65;;;26.92;;
34019;SDS011;20895;51.034;3.742;2023-01-24T13:44:44;41.60;;;29.95;;
34019;SDS011;20895;51.034;3.742;2023-01-24T13:49:48;43.75;;;28.92;;
34019;SDS011;20895;51.034;3.742;2023-01-24T13:54:57;36.92;;;27.88;;
34019;SDS011;20895;51.034;3.742;2023-01-24T13:57:29;37.65;;;28.42;;
34019;SDS011;20895;51.034;3.742;2023-01-24T14:00:14;40.25;;;28.92;;
34019;SDS011;20895;51.034;3.742;2023-01-24T14:02:41;58.65;;;29.42;;
34019;SDS011;20895;51.034;3.742;2023-01-24T14:10:16;30.00;;;22.58;;
34019;SDS011;20895;51.034;3.742;2023-01-24T14:12:41;30.88;;;23.65;;
34019;SDS011;20895;51.034;3.742;2023-01-24T14:15:26;30.88;;;22.83;;
34019;SDS011;20895;51.034;3.742;2023-01-24T14:17:56;33.50;;;23.02;;
34019;SDS011;20895;51.034;3.742;2023-01-24T14:20:23;31.73;;;23.00;;
34019;SDS011;20895;51.034;3.742;2023-01-24T14:22:52;34.67;;;23.77;;
34019;SDS011;20895;51.034;3.742;2023-01-24T14:28:10;29.15;;;22.33;;
34019;SDS011;20895;51.034;3.742;2023-01-24T14:30:42;31.33;;;22.50;;
34019;SDS011;20895;51.034;3.742;2023-01-24T14:35:38;33.17;;;23.20;;
34019;SDS011;20895;51.034;3.742;2023-01-24T14:38:13;32.22;;;22.77;;
34019;SDS011;20895;51.034;3.742;2023-01-24T14:40:39;33.40;;;26.05;;
34019;SDS011;20895;51.034;3.742;2023-01-24T14:43:05;33.90;;;26.50;;
34019;SDS011;20895;51.034;3.742;2023-01-24T14:45:31;35.60;;;25.85;;
34019;SDS011;20895;51.034;3.742;2023-01-24T14:47:57;38.30;;;28.48;;
34019;SDS011;20895;51.034;3.742;2023-01-24T14:50:33;36.63;;;27.70;;
34019;SDS011;20895;51.034;3.742;2023-01-24T14:52:58;37.50;;;28.70;;
34019;SDS011;20895;51.034;3.742;2023-01-24T14:57:49;35.33;;;27.48;;
34019;SDS011;20895;51.034;3.742;2023-01-24T15:00:15;40.85;;;29.67;;
34019;SDS011;20895;51.034;3.742;2023-01-24T15:07:55;46.95;;;28.45;;
34019;SDS011;20895;51.034;3.742;2023-01-24T15:10:22;38.80;;;28.90;;
34019;SDS011;20895;51.034;3.742;2023-01-24T15:12:50;43.75;;;28.98;;
34019;SDS011;20895;51.034;3.742;2023-01-24T15:15:16;36.28;;;27.00;;
34019;SDS011;20895;51.034;3.742;2023-01-24T15:17:44;40.13;;;26.63;;
34019;SDS011;20895;51.034;3.742;2023-01-24T15:20:10;29.80;;;22.15;;
34019;SDS011;20895;51.034;3.742;2023-01-24T15:22:36;46.03;;;28.83;;
34019;SDS011;20895;51.034;3.742;2023-01-24T15:25:03;41.58;;;28.95;;
34019;SDS011;20895;51.034;3.742;2023-01-24T15:37:41;43.88;;;31.75;;
34019;SDS011;20895;51.034;3.742;2023-01-24T15:40:15;48.80;;;35.03;;
34019;SDS011;20895;51.034;3.742;2023-01-24T15:42:43;48.28;;;33.97;;
34019;SDS011;20895;51.034;3.742;2023-01-24T15:45:27;50.25;;;32.05;;
34019;SDS011;20895;51.034;3.742;2023-01-24T15:50:36;39.83;;;30.38;;
34019;SDS011;20895;51.034;3.742;2023-01-24T15:53:24;38.25;;;29.17;;
34019;SDS011;20895;51.034;3.742;2023-01-24T15:55:51;33.80;;;25.05;;
34019;SDS011;20895;51.034;3.742;2023-01-24T15:58:17;35.80;;;25.83;;
34019;SDS011;20895;51.034;3.742;2023-01-24T16:00:53;34.80;;;25.60;;
34019;SDS011;20895;51.034;3.742;2023-01-24T16:03:19;34.05;;;25.58;;
34019;SDS011;20895;51.034;3.742;2023-01-24T16:05:44;38.92;;;25.88;;
34019;SDS011;20895;51.034;3.742;2023-01-24T16:08:09;38.95;;;26.30;;
34019;SDS011;20895;51.034;3.742;2023-01-24T16:10:35;33.38;;;23.65;;
34019;SDS011;20895;51.034;3.742;2023-01-24T16:13:00;36.45;;;25.73;;
34019;SDS011;20895;51.034;3.742;2023-01-24T16:15:26;35.03;;;24.60;;
34019;SDS011;20895;51.034;3.742;2023-01-24T16:17:51;41.78;;;26.08;;
34019;SDS011;20895;51.034;3.742;2023-01-24T16:20:17;31.42;;;24.75;;
34019;SDS011;20895;51.034;3.742;2023-01-24T16:22:43;35.08;;;26.83;;
34019;SDS011;20895;51.034;3.742;2023-01-24T16:25:11;37.58;;;24.88;;
34019;SDS011;20895;51.034;3.742;2023-01-24T16:27:36;32.55;;;22.55;;
34019;SDS011;20895;51.034;3.742;2023-01-24T16:30:03;34.13;;;22.35;;
34019;SDS011;20895;51.034;3.742;2023-01-24T16:32:29;29.55;;;23.33;;
34019;SDS011;20895;51.034;3.742;2023-01-24T16:34:54;31.35;;;22.42;;
34019;SDS011;20895;51.034;3.742;2023-01-24T16:37:19;30.02;;;22.05;;
34019;SDS011;20895;51.034;3.742;2023-01-24T16:39:45;31.92;;;23.00;;
34019;SDS011;20895;51.034;3.742;2023-01-24T16:42:17;36.60;;;24.20;;
34019;SDS011;20895;51.034;3.742;2023-01-24T16:44:43;30.40;;;22.47;;